目前日期文章:201501 (161)

瀏覽方式: 標題列表 簡短摘要
發表時間 文章標題 人氣 留言
2015-01-31 like【LONGCHAMP】春夏限量款Legende系列亮漆皮醫生包(淺棕色-1746173-005) (0) (0)
2015-01-31 like【MICHAEL KORS】圓點印花輕便購物-托特包(大-黑白-5折) (0) (0)
2015-01-31 like【LONGCHAMP】LE PLIAGE CUIR混羊皮短把兩用包(小-桃粉紅1512737-837) (0) (0)
2015-01-31 like【GUCCI】經典織布雙槓托特包(小-咖黑) (0) (0)
2015-01-31 like【PRADA】經典防刮皮革對折短夾_展示品(黑色) (1) (0)
2015-01-30 【SK-II】光感鑽白精華液 50ml(2入 贈KilaDoll璀璨黃金眼膜1盒) (0) (0)
2015-01-30 【Cetaphil舒特膚】全日護高效防曬凝露50+-PA++++50ml(加贈旅行組) (0) (0)
2015-01-30 【CONI】超淨顏高效儲水淨痘粉刺罐 (0) (0)
2015-01-30 【La Mav】夜間修護蜜露30ml(平紋皇后) (0) (0)
2015-01-30 【Kiehl’s契爾氏】特級保濕-無油潔面慕斯(30ML-2) (0) (0)
2015-01-29 超讚!【Dr.Q】外食纖活天天暢-10天順暢組(2顆-包-10包-盒) (0) (0)
2015-01-29 超讚!【加拿大vsc】FloraGLO葉黃素(60顆X3) (0) (0)
2015-01-29 超讚!【信東生技】甲殼素複方膠囊120粒6入組 (0) (0)
2015-01-29 超讚!苦花咖啡 臺灣高山咖啡-100%純臺灣咖啡豆1-4磅(埋伏坪系列) (0) (0)
2015-01-29 超讚!【御松田】綜合酵素+乳酸菌粉末包(2gX30入X1盒) (0) (0)
2015-01-28 超讚!義大利 LAVAZZA Caffe Crema & QUALITA ORO 組合 (0) (0)
2015-01-28 大推...草本之家-紅花共軛亞麻油酸100粒3盒 (0) (0)
2015-01-28 超讚!【新造茗茶】大禹嶺頂級手採高山茶(150g-罐) (0) (0)
2015-01-28 超讚!【完美樂活】超動感乳酸菌-4盒組(30包-盒) (0) (0)
2015-01-28 【統一生機】小家庭套餐(宅配單週) (0) (0)
2015-01-28 【歐特】有機黑榖多榖奶 隨身袋(30g-10包) (0) (0)
2015-01-28 【茂喜】進口嚴選商品-加拿大非基因改造黃豆400g-包 (0) (0)
2015-01-28 大推...【BIOline星譜生技】美麗交點淨纖茶180包(3.5g-包×180包) (0) (0)
2015-01-28 【阿一鮑魚】阿一八珍鮑魚烏骨雞超值組2盒 (5) (0)
2015-01-27 大推...【BIOline星譜生技】go享速-胺基酸pulsB群+鋅+鐵(30錠-盒 加贈 勁-維他命B群20錠) (0) (0)
2015-01-27 【慕鈺華】菠菜蔥肉水餃1包(35粒-包) (0) (0)
2015-01-27 【TISSOT 天梭】PR100 經典時忠鰼鬵-T0493071103100) (0) (0)
2015-01-27 【預購-竹南懷舊】冰糖紅燒富貴蹄3盒裝(1300公克-盒) (0) (0)
2015-01-26 大推...【burner倍熱】食事對策Hello Kitty 限量特惠組 (0) (0)
2015-01-26 必buy!【Clinique 倩碧】三步驟保濕潔膚水3號 400ml (0) (0)
2015-01-26 【萬巒熊家豬腳】招牌豬腳一斤組(4包) (0) (0)
2015-01-26 必buy!【COWSHED】經典小牛柔嫩護唇膏(12ml) (0) (0)
2015-01-26 【YOUNGBABY中大碼】箭頭口袋微刷破刷白牛仔外套(藍) (0) (0)
2015-01-26 【lingling】唯美蕾絲花網接黑紗長上衣PA608(柔雅米杏) (0) (0)
2015-01-26 【SAFEWAY】數位衛生套-無感超薄型(12入-盒x20) (0) (0)
2015-01-26 【買新鮮】櫻桃鴨卷5份組(200g-份) (0) (0)
2015-01-25 【LAB SERIES 雅男士】鈦金抗皺調理露(30ml-2) (0) (0)
2015-01-25 【優鮮配】斯里蘭卡頂級蝦姑12隻(200g-250g-隻) (0) (0)
2015-01-25 【YOCO】千鳥V領傘狀蓬袖毛呢上衣 (0) (0)
2015-01-25 【LANICO】獨家訂製款!深機密美胸前扣無鋼圈蠶絲內襯A-E罩內衣三套組(9180) (2) (0)
2015-01-25 【CouleurCaramel焦糖色】陽光花漾粉餅+定妝粉底膏 (0) (0)
2015-01-25 【優鮮配】正源萬巒豬腳x2隻組(1.2kg-隻) (0) (0)
2015-01-25 【AYI艾妍】酷夏.70A-85C彈力無痕成套款(黑色) (0) (0)
2015-01-25 【TITONI】Cosmo King宇宙系列羅馬時刻機械仕女腕錶-白x半金(728SY-019) (0) (0)
2015-01-25 【大富手工美食】北斗風味手工肉圓 4粒-盒 2盒組 (0) (0)
2015-01-24 【CITIZEN】星辰 L 系列光動能藍寶石三眼計時女錶-黑(FB1377-51E) (0) (0)
2015-01-24 【DR.WU】VC微導美白精華液(買一送一) (0) (0)
2015-01-24 【MARC By Marc Jacobs】守愛甜心時忠鰼騊藩-玫瑰金(MBM9713) (0) (0)
2015-01-24 【BELLA SETA】100%蠶絲零束縛運動型胸罩兩件組(黑色、膚玉色、膚色、香芋色) (0) (0)
2015-01-24 【SEIKO】Kinetic 互動式人動電能時延藩-黑x玫塊金-42mm(5D22-0AD0K) (0) (0)
1 234
找更多相關文章與討論